This is the latest recevied weather packets stored in our database for station/object EA1GGY-1. If no packets are shown the sender has not sent any weather packets the latest 10 day(s).
| Time | Temp. | Humidity | Pressure | Rain* | Wind** | Luminosity | Snow |
|---|---|---|---|---|---|---|---|
| 1777549153 | 13.89° C | 71% | 1011.9 hPa | - | - | - | - |
| 1777548553 | 13.89° C | 70% | 1012 hPa | - | - | - | - |
| 1777547952 | 13.89° C | 70% | 1011.9 hPa | - | - | - | - |
| 1777547351 | 13.89° C | 71% | 1011.9 hPa | - | - | - | - |
| 1777546751 | 13.33° C | 71% | 1011.9 hPa | - | - | - | - |
| 1777546150 | 13.89° C | 70% | 1011.7 hPa | - | - | - | - |
| 1777545549 | 13.33° C | 73% | 1011.8 hPa | - | - | - | - |
| 1777544950 | 13.33° C | 69% | 1011.6 hPa | - | - | - | - |
| 1777544347 | 13.33° C | 71% | 1011.5 hPa | - | - | - | - |
| 1777543748 | 13.33° C | 70% | 1011.4 hPa | - | - | - | - |
| 1777543146 | 13.33° C | 72% | 1011.5 hPa | - | - | - | - |
| 1777542546 | 12.78° C | 74% | 1011.4 hPa | - | - | - | - |
| 1777541945 | 12.78° C | 74% | 1011.2 hPa | - | - | - | - |
| 1777541343 | 13.89° C | 71% | 1011.3 hPa | - | - | - | - |
| 1777540742 | 12.22° C | 78% | 1011.2 hPa | - | - | - | - |
| 1777540141 | 11.67° C | 79% | 1011.2 hPa | - | - | - | - |
| 1777539541 | 11.67° C | 80% | 1011.2 hPa | - | - | - | - |
| 1777538940 | 11.11° C | 80% | 1011.1 hPa | - | - | - | - |
| 1777538339 | 11.11° C | 82% | 1011 hPa | - | - | - | - |
| 1777537738 | 11.11° C | 80% | 1011 hPa | - | - | - | - |
| 1777537138 | 11.11° C | 81% | 1010.9 hPa | - | - | - | - |
| 1777536536 | 11.11° C | 81% | 1010.9 hPa | - | - | - | - |
| 1777535935 | 10.56° C | 81% | 1010.9 hPa | - | - | - | - |
| 1777535335 | 11.11° C | 81% | 1010.8 hPa | - | - | - | - |
| 1777534733 | 11.11° C | 81% | 1010.7 hPa | - | - | - | - |
* Rain since midnight (hover to see other rain measurements)
** Current wind speed in m/s (hover to see current wind gust speed)